createdAt,value
2019-05-23T00:02:27.312Z,9.90
2019-05-23T00:05:12.847Z,9.80
2019-05-23T00:07:43.344Z,9.80
2019-05-23T00:10:14.291Z,9.80
2019-05-23T00:12:49.742Z,9.80
2019-05-23T00:15:25.943Z,9.80
2019-05-23T00:17:56.417Z,9.80
2019-05-23T00:20:25.960Z,9.80
2019-05-23T00:22:55.542Z,9.70
2019-05-23T00:25:25.382Z,9.70
2019-05-23T00:27:56.285Z,9.70
2019-05-23T00:30:43.893Z,9.70
2019-05-23T00:33:15.844Z,9.70
2019-05-23T00:35:45.404Z,9.70
2019-05-23T00:38:14.528Z,9.60
2019-05-23T00:40:44.562Z,9.60
2019-05-23T00:43:14.850Z,9.50
2019-05-23T00:45:43.838Z,9.40
2019-05-23T00:48:13.510Z,9.40
2019-05-23T00:50:42.834Z,9.40
2019-05-23T00:53:12.525Z,9.30
2019-05-23T00:55:41.729Z,9.30
2019-05-23T00:58:11.879Z,9.30
2019-05-23T01:00:41.855Z,9.30
2019-05-23T01:03:12.803Z,9.30
2019-05-23T01:05:43.040Z,9.20
2019-05-23T01:08:12.372Z,9.20
2019-05-23T01:10:42.586Z,9.10
2019-05-23T01:13:13.314Z,9.10
2019-05-23T01:15:45.137Z,9.10
2019-05-23T01:18:14.248Z,9.00
2019-05-23T01:20:44.874Z,9.00
2019-05-23T01:23:14.825Z,9.00
2019-05-23T01:25:44.774Z,9.00
2019-05-23T01:28:14.175Z,9.00
2019-05-23T01:30:50.184Z,9.00
2019-05-23T01:33:19.201Z,8.90
2019-05-23T01:35:48.115Z,8.90
2019-05-23T01:38:18.697Z,8.90
2019-05-23T01:40:48.239Z,8.80
2019-05-23T01:43:18.795Z,8.70
2019-05-23T01:45:48.050Z,8.70
2019-05-23T01:48:17.075Z,8.70
2019-05-23T01:50:46.370Z,8.70
2019-05-23T01:53:15.954Z,8.80
2019-05-23T01:55:46.903Z,8.70
2019-05-23T01:58:15.837Z,8.70
2019-05-23T02:00:46.785Z,8.70
2019-05-23T02:03:15.990Z,8.70
2019-05-23T02:05:45.114Z,8.60
2019-05-23T02:08:16.434Z,8.70
2019-05-23T02:10:46.694Z,8.60
2019-05-23T02:13:15.857Z,8.50
2019-05-23T02:15:44.798Z,8.50
2019-05-23T02:18:15.926Z,8.40
2019-05-23T02:20:46.037Z,8.40
2019-05-23T02:23:16.533Z,8.40
2019-05-23T02:25:46.057Z,8.40
2019-05-23T02:28:15.724Z,8.30
2019-05-23T02:30:44.726Z,8.30
2019-05-23T02:33:14.548Z,8.30
2019-05-23T02:35:43.689Z,8.30
2019-05-23T02:38:29.948Z,8.30
2019-05-23T02:41:10.115Z,8.20
2019-05-23T02:43:40.749Z,8.20
2019-05-23T02:46:14.463Z,8.20
2019-05-23T02:48:43.545Z,8.10
2019-05-23T02:51:19.484Z,8.10
2019-05-23T02:53:51.467Z,8.10
2019-05-23T02:56:20.890Z,8.10
2019-05-23T02:59:11.214Z,8.10
2019-05-23T03:02:21.548Z,8.00
2019-05-23T03:04:52.093Z,7.90
2019-05-23T03:07:24.821Z,7.90
2019-05-23T03:09:54.991Z,7.80
2019-05-23T03:12:25.576Z,7.80
2019-05-23T03:14:56.389Z,7.80
2019-05-23T03:17:27.550Z,7.80
2019-05-23T03:19:59.066Z,7.80
2019-05-23T03:22:38.566Z,7.70
2019-05-23T03:25:38.265Z,7.70
2019-05-23T03:28:09.664Z,7.80
2019-05-23T03:30:40.488Z,7.80
2019-05-23T03:33:14.009Z,7.80
2019-05-23T03:35:44.917Z,7.80
2019-05-23T03:38:14.433Z,7.70
2019-05-23T03:40:43.342Z,7.70
2019-05-23T03:43:12.459Z,7.70
2019-05-23T03:45:47.717Z,7.70
2019-05-23T03:48:18.861Z,7.80
2019-05-23T03:50:48.847Z,7.90
2019-05-23T03:53:18.924Z,7.90
2019-05-23T03:55:48.115Z,8.00
2019-05-23T03:58:18.691Z,8.00
2019-05-23T04:00:52.217Z,8.00
2019-05-23T04:03:22.500Z,8.00
2019-05-23T04:05:51.954Z,8.10
2019-05-23T04:08:21.011Z,8.10
2019-05-23T04:10:51.839Z,8.20
2019-05-23T04:13:21.964Z,8.20
2019-05-23T04:15:51.211Z,8.30
2019-05-23T04:18:20.231Z,8.50
2019-05-23T04:20:49.390Z,8.60
2019-05-23T04:23:19.050Z,8.80
2019-05-23T04:25:48.327Z,9.00
2019-05-23T04:28:17.744Z,9.50
2019-05-23T04:30:48.430Z,10.00
2019-05-23T04:33:17.370Z,10.70
2019-05-23T04:35:47.155Z,11.50
2019-05-23T04:38:16.826Z,12.50
2019-05-23T04:40:46.313Z,13.30
2019-05-23T04:43:15.519Z,14.00
2019-05-23T04:45:44.715Z,14.80
2019-05-23T04:48:14.380Z,15.40
2019-05-23T04:50:43.496Z,15.90
2019-05-23T04:53:12.417Z,16.10
2019-05-23T04:55:42.240Z,16.30
2019-05-23T04:58:11.163Z,16.60
2019-05-23T05:00:40.101Z,16.80
2019-05-23T05:03:09.907Z,16.70
2019-05-23T05:05:40.085Z,16.60
2019-05-23T05:08:09.533Z,16.90
2019-05-23T05:10:39.367Z,17.10
2019-05-23T05:13:08.458Z,17.20
2019-05-23T05:15:37.485Z,17.10
2019-05-23T05:18:07.658Z,16.90
2019-05-23T05:20:36.958Z,16.90
2019-05-23T05:23:06.529Z,17.20
2019-05-23T05:25:35.878Z,17.70
2019-05-23T05:28:05.178Z,17.90
2019-05-23T05:30:34.775Z,17.70
2019-05-23T05:33:03.759Z,17.40
2019-05-23T05:35:33.456Z,17.10
2019-05-23T05:38:02.648Z,16.80
2019-05-23T05:40:31.719Z,16.70
2019-05-23T05:43:02.008Z,16.60
2019-05-23T05:45:31.628Z,16.10
2019-05-23T05:48:01.816Z,15.70
2019-05-23T05:50:31.578Z,15.40
2019-05-23T05:53:00.516Z,15.00
2019-05-23T05:55:29.486Z,14.60
2019-05-23T05:57:58.623Z,14.50
2019-05-23T06:00:29.435Z,14.40
2019-05-23T06:03:05.231Z,14.40
2019-05-23T06:05:51.275Z,14.40
2019-05-23T06:08:22.146Z,14.40
2019-05-23T06:10:51.230Z,14.40
2019-05-23T06:13:20.211Z,14.40
2019-05-23T06:15:51.259Z,14.40
2019-05-23T06:18:20.460Z,14.50
2019-05-23T06:20:49.770Z,14.50
2019-05-23T06:23:20.002Z,14.50
2019-05-23T06:25:49.170Z,14.50
2019-05-23T06:28:19.558Z,14.60
2019-05-23T06:30:50.129Z,14.60
2019-05-23T06:33:23.891Z,14.60
2019-05-23T06:35:50.871Z,14.60
2019-05-23T06:38:20.174Z,14.50
2019-05-23T06:40:49.121Z,14.50
2019-05-23T06:43:18.845Z,14.60
2019-05-23T06:45:47.808Z,14.60
2019-05-23T06:48:18.197Z,14.70
2019-05-23T06:50:47.383Z,14.90
2019-05-23T06:53:16.360Z,14.90
2019-05-23T06:55:45.568Z,15.00
2019-05-23T06:58:14.774Z,15.10
2019-05-23T07:00:44.155Z,15.20
2019-05-23T07:03:13.346Z,15.20
2019-05-23T07:05:42.873Z,15.30
2019-05-23T07:08:12.978Z,15.40
2019-05-23T07:10:44.695Z,15.50
2019-05-23T07:13:14.378Z,15.50
2019-05-23T07:15:44.126Z,15.60
2019-05-23T07:18:13.613Z,15.80
2019-05-23T07:20:42.568Z,16.00
2019-05-23T07:23:13.134Z,16.00
2019-05-23T07:25:42.111Z,15.90
2019-05-23T07:28:11.347Z,15.90
2019-05-23T07:30:40.410Z,16.00
2019-05-23T07:33:10.165Z,16.10
2019-05-23T07:35:39.186Z,16.20
2019-05-23T07:38:08.808Z,16.30
2019-05-23T07:40:38.057Z,16.40
2019-05-23T07:43:08.238Z,16.60
2019-05-23T07:45:42.431Z,16.70
2019-05-23T07:48:12.379Z,16.70
2019-05-23T07:50:41.366Z,16.80
2019-05-23T07:53:12.291Z,16.80
2019-05-23T07:55:43.132Z,17.00
2019-05-23T07:58:14.203Z,17.00
2019-05-23T08:00:48.332Z,17.10
2019-05-23T08:03:17.911Z,17.20
2019-05-23T08:05:47.654Z,17.20
2019-05-23T08:08:17.129Z,17.20
2019-05-23T08:10:46.438Z,17.30
2019-05-23T08:13:15.376Z,17.20
2019-05-23T08:15:44.949Z,17.40
2019-05-23T08:18:14.483Z,17.50
2019-05-23T08:20:45.205Z,17.50
2019-05-23T08:23:15.855Z,17.40
2019-05-23T08:25:45.030Z,17.40
2019-05-23T08:28:14.427Z,17.50
2019-05-23T08:30:43.641Z,17.50
2019-05-23T08:33:13.725Z,17.50
2019-05-23T08:35:43.486Z,17.50
2019-05-23T08:38:13.390Z,17.60
2019-05-23T08:40:43.169Z,17.70
2019-05-23T08:43:12.576Z,17.90
2019-05-23T08:45:42.282Z,18.00
2019-05-23T08:48:11.999Z,18.10
2019-05-23T08:50:41.588Z,18.20
2019-05-23T08:53:10.527Z,18.30
2019-05-23T08:55:39.890Z,18.10
2019-05-23T08:58:12.055Z,18.10
2019-05-23T09:00:42.819Z,18.20
2019-05-23T09:03:12.795Z,18.30
2019-05-23T09:05:42.490Z,18.40
2019-05-23T09:08:16.402Z,18.50
2019-05-23T09:10:43.117Z,18.40
2019-05-23T09:13:12.816Z,18.50
2019-05-23T09:15:42.016Z,18.50
2019-05-23T09:18:11.630Z,18.50
2019-05-23T09:20:40.879Z,18.60
2019-05-23T09:23:10.186Z,18.70
2019-05-23T09:25:39.363Z,18.80
2019-05-23T09:28:09.664Z,18.80
2019-05-23T09:30:38.695Z,18.90
2019-05-23T09:33:08.354Z,19.00
2019-05-23T09:35:37.734Z,19.20
2019-05-23T09:38:06.939Z,19.20
2019-05-23T09:40:36.419Z,19.10
2019-05-23T09:43:06.308Z,19.10
2019-05-23T09:45:35.252Z,19.10
2019-05-23T09:48:04.474Z,19.20
2019-05-23T09:50:33.408Z,19.40
2019-05-23T09:53:02.431Z,19.30
2019-05-23T09:55:31.951Z,19.30
2019-05-23T09:58:01.322Z,19.40
2019-05-23T10:00:30.350Z,19.40
2019-05-23T10:03:00.610Z,19.40
2019-05-23T10:05:42.159Z,19.50
2019-05-23T10:08:00.634Z,19.70
2019-05-23T10:10:30.015Z,19.70
2019-05-23T10:12:59.081Z,19.70
2019-05-23T10:15:37.634Z,19.80
2019-05-23T10:18:08.584Z,19.70
2019-05-23T10:20:38.298Z,19.90
2019-05-23T10:23:07.258Z,20.00
2019-05-23T10:25:36.207Z,20.00
2019-05-23T10:28:05.454Z,20.00
2019-05-23T10:30:34.682Z,20.00
2019-05-23T10:33:11.426Z,19.90
2019-05-23T10:35:36.059Z,20.00
2019-05-23T10:38:05.274Z,20.00
2019-05-23T10:40:34.736Z,20.00
2019-05-23T10:43:03.806Z,20.00
2019-05-23T10:45:33.001Z,20.00
2019-05-23T10:48:02.545Z,20.00
2019-05-23T10:50:44.356Z,20.00
2019-05-23T10:53:02.300Z,20.10
2019-05-23T10:55:31.489Z,20.20
2019-05-23T10:58:00.535Z,20.10
2019-05-23T11:00:30.239Z,20.20
2019-05-23T11:02:59.924Z,20.40
2019-05-23T11:05:29.058Z,20.30
2019-05-23T11:07:59.447Z,20.30
2019-05-23T11:10:28.661Z,20.30
2019-05-23T11:12:57.607Z,20.50
2019-05-23T11:15:26.821Z,20.50
2019-05-23T11:17:56.100Z,20.50
2019-05-23T11:20:26.212Z,20.50
2019-05-23T11:22:55.415Z,20.50
2019-05-23T11:25:24.521Z,20.60
2019-05-23T11:27:53.522Z,20.70
2019-05-23T11:30:26.004Z,20.70
2019-05-23T11:32:55.051Z,20.70
2019-05-23T11:35:24.536Z,20.70
2019-05-23T11:37:53.689Z,20.70
2019-05-23T11:40:22.826Z,20.60
2019-05-23T11:42:52.883Z,20.70
2019-05-23T11:45:24.025Z,20.80
2019-05-23T11:47:52.979Z,20.80
2019-05-23T11:50:22.075Z,20.80
2019-05-23T11:52:51.334Z,20.80
2019-05-23T11:55:20.565Z,20.80
2019-05-23T11:57:49.613Z,20.80
2019-05-23T12:00:23.239Z,20.80
2019-05-23T12:02:53.000Z,20.80
2019-05-23T12:05:23.641Z,20.80
2019-05-23T12:07:52.794Z,20.80
2019-05-23T12:10:22.280Z,20.80
2019-05-23T12:12:51.308Z,20.80
2019-05-23T12:15:22.301Z,20.90
2019-05-23T12:17:52.125Z,21.00
2019-05-23T12:20:21.199Z,21.10
2019-05-23T12:22:50.457Z,21.20
2019-05-23T12:25:23.046Z,21.10
2019-05-23T12:27:50.691Z,21.10
2019-05-23T12:30:21.228Z,21.10
2019-05-23T12:32:50.246Z,21.10
2019-05-23T12:35:19.245Z,21.10
2019-05-23T12:37:48.215Z,21.10
2019-05-23T12:40:17.846Z,21.00
2019-05-23T12:42:46.965Z,21.10
2019-05-23T12:45:16.610Z,21.20
2019-05-23T12:47:49.897Z,21.30
2019-05-23T12:50:29.749Z,21.40
2019-05-23T12:52:58.793Z,21.50
2019-05-23T12:55:27.787Z,21.60
2019-05-23T12:57:56.788Z,21.60
2019-05-23T13:00:27.476Z,21.80
2019-05-23T13:02:57.098Z,21.90
2019-05-23T13:05:26.600Z,22.00
2019-05-23T13:07:55.528Z,21.90
2019-05-23T13:10:25.511Z,21.90
2019-05-23T13:12:54.946Z,22.00
2019-05-23T13:15:24.095Z,22.20
2019-05-23T13:17:53.088Z,22.20
2019-05-23T13:20:22.590Z,22.30
2019-05-23T13:22:51.700Z,22.40
2019-05-23T13:25:22.154Z,22.40
2019-05-23T13:27:51.159Z,22.20
2019-05-23T13:30:20.630Z,22.00
2019-05-23T13:32:49.702Z,21.80
2019-05-23T13:35:18.894Z,21.80
2019-05-23T13:37:53.676Z,21.80
2019-05-23T13:40:19.646Z,21.70
2019-05-23T13:42:48.915Z,21.70
2019-05-23T13:45:18.742Z,21.80
2019-05-23T13:47:48.681Z,21.80
2019-05-23T13:50:19.092Z,21.90
2019-05-23T13:52:48.978Z,21.90
2019-05-23T13:55:18.653Z,22.00
2019-05-23T13:57:47.721Z,22.10
2019-05-23T14:00:18.151Z,22.10
2019-05-23T14:02:47.699Z,22.10
2019-05-23T14:05:19.224Z,22.10
2019-05-23T14:07:48.742Z,22.00
2019-05-23T14:10:18.338Z,22.00
2019-05-23T14:12:49.168Z,22.00
2019-05-23T14:15:19.776Z,22.00
2019-05-23T14:17:49.338Z,22.20
2019-05-23T14:20:18.951Z,22.00
2019-05-23T14:22:49.737Z,21.90
2019-05-23T14:25:19.037Z,21.80
2019-05-23T14:27:55.301Z,21.80
2019-05-23T14:30:26.063Z,21.80
2019-05-23T14:32:59.245Z,21.80
2019-05-23T14:35:30.022Z,22.00
2019-05-23T14:38:00.822Z,22.10
2019-05-23T14:40:30.371Z,22.30
2019-05-23T14:43:29.032Z,22.40
2019-05-23T14:46:05.674Z,22.40
2019-05-23T14:48:45.459Z,22.50
2019-05-23T14:51:31.169Z,22.60
2019-05-23T14:54:10.643Z,22.50
2019-05-23T14:56:39.844Z,22.50
2019-05-23T14:59:08.790Z,22.50
2019-05-23T15:01:38.365Z,22.50
2019-05-23T15:04:08.071Z,22.60
2019-05-23T15:06:37.163Z,22.50
2019-05-23T15:09:09.863Z,22.40
2019-05-23T15:11:39.151Z,22.30
2019-05-23T15:14:08.212Z,22.20
2019-05-23T15:16:37.243Z,22.20
2019-05-23T15:19:07.134Z,22.20
2019-05-23T15:21:36.195Z,22.30
2019-05-23T15:24:05.466Z,22.40
2019-05-23T15:26:34.564Z,22.50
2019-05-23T15:29:03.659Z,22.50
2019-05-23T15:31:33.528Z,22.50
2019-05-23T15:34:02.563Z,22.50
2019-05-23T15:36:31.501Z,22.40
2019-05-23T15:39:09.660Z,22.40
2019-05-23T15:41:31.472Z,22.40
2019-05-23T15:44:00.519Z,22.40
2019-05-23T15:46:29.517Z,22.50
2019-05-23T15:48:59.424Z,22.50
2019-05-23T15:51:30.146Z,22.50
2019-05-23T15:54:03.840Z,22.50
2019-05-23T15:56:34.647Z,22.50
2019-05-23T15:59:16.900Z,22.60
2019-05-23T16:01:47.607Z,22.60
2019-05-23T16:04:18.300Z,22.60
2019-05-23T16:06:47.807Z,22.60
2019-05-23T16:09:29.193Z,22.60
2019-05-23T16:11:49.275Z,22.60
2019-05-23T16:14:18.339Z,22.50
2019-05-23T16:16:47.469Z,22.50
2019-05-23T16:19:16.538Z,22.40
2019-05-23T16:21:46.030Z,22.40
2019-05-23T16:24:15.155Z,22.40
2019-05-23T16:26:45.139Z,22.40
2019-05-23T16:29:14.557Z,22.30
2019-05-23T16:31:43.923Z,22.30
2019-05-23T16:34:13.178Z,22.30
2019-05-23T16:36:42.326Z,22.20
2019-05-23T16:39:11.266Z,22.20
2019-05-23T16:41:40.308Z,22.10
2019-05-23T16:44:09.324Z,22.10
2019-05-23T16:46:38.769Z,22.00
2019-05-23T16:49:08.076Z,22.00
2019-05-23T16:51:37.239Z,21.90
2019-05-23T16:54:06.548Z,21.90
2019-05-23T16:56:52.282Z,21.90
2019-05-23T16:59:25.255Z,21.90
2019-05-23T17:02:06.108Z,21.90
2019-05-23T17:04:37.057Z,21.80
2019-05-23T17:07:23.971Z,21.80
2019-05-23T17:10:08.138Z,21.80
2019-05-23T17:12:45.634Z,21.90
2019-05-23T17:15:36.330Z,22.00
2019-05-23T17:18:07.108Z,22.00
2019-05-23T17:20:53.146Z,22.00
2019-05-23T17:23:26.214Z,22.00
2019-05-23T17:26:13.144Z,22.00
2019-05-23T17:28:43.753Z,22.10
2019-05-23T17:31:14.439Z,22.00
2019-05-23T17:33:43.613Z,22.00
2019-05-23T17:36:12.630Z,22.00
2019-05-23T17:38:41.810Z,21.90
2019-05-23T17:41:11.195Z,21.80
2019-05-23T17:43:40.178Z,21.70
2019-05-23T17:46:09.124Z,21.60
2019-05-23T17:48:38.134Z,21.60
2019-05-23T17:51:07.315Z,21.40
2019-05-23T17:53:36.364Z,21.30
2019-05-23T17:56:05.456Z,21.30
2019-05-23T17:58:34.489Z,21.10
2019-05-23T18:01:05.131Z,21.10
2019-05-23T18:03:34.126Z,21.00
2019-05-23T18:06:03.935Z,20.90
2019-05-23T18:08:33.610Z,20.80
2019-05-23T18:11:03.375Z,20.80
2019-05-23T18:13:32.349Z,20.80
2019-05-23T18:16:02.072Z,20.70
2019-05-23T18:18:32.083Z,20.70
2019-05-23T18:21:01.333Z,20.60
2019-05-23T18:23:30.687Z,20.60
2019-05-23T18:26:03.139Z,20.60
2019-05-23T18:28:32.522Z,20.50
2019-05-23T18:31:08.375Z,20.50
2019-05-23T18:33:34.612Z,20.40
2019-05-23T18:36:03.962Z,20.40
2019-05-23T18:38:33.461Z,20.30
2019-05-23T18:41:08.729Z,20.30
2019-05-23T18:43:34.818Z,20.30
2019-05-23T18:46:09.451Z,20.20
2019-05-23T18:48:38.775Z,20.10
2019-05-23T18:51:08.379Z,20.10
2019-05-23T18:53:37.459Z,20.00
2019-05-23T18:56:07.053Z,19.90
2019-05-23T18:58:36.009Z,19.80
2019-05-23T19:01:06.763Z,19.70
2019-05-23T19:03:36.361Z,19.60
2019-05-23T19:06:05.666Z,19.50
2019-05-23T19:08:35.106Z,19.40
2019-05-23T19:11:19.384Z,19.30
2019-05-23T19:13:35.908Z,19.10
2019-05-23T19:16:05.258Z,19.00
2019-05-23T19:18:34.671Z,18.90
2019-05-23T19:21:04.193Z,18.80
2019-05-23T19:23:33.867Z,18.70
2019-05-23T19:26:02.890Z,18.60
2019-05-23T19:28:31.921Z,18.40
2019-05-23T19:31:01.168Z,18.30
2019-05-23T19:33:30.608Z,18.20
2019-05-23T19:35:59.705Z,18.10
2019-05-23T19:38:28.792Z,18.00
2019-05-23T19:40:58.302Z,17.90
2019-05-23T19:43:28.580Z,17.80
2019-05-23T19:45:57.820Z,17.80
2019-05-23T19:48:27.286Z,17.70
2019-05-23T19:50:57.132Z,17.70
2019-05-23T19:53:26.361Z,17.60
2019-05-23T19:55:55.614Z,17.50
2019-05-23T19:58:24.811Z,17.50
2019-05-23T20:00:53.731Z,17.50
2019-05-23T20:03:22.770Z,17.40
2019-05-23T20:05:56.371Z,17.30
2019-05-23T20:08:25.408Z,17.30
2019-05-23T20:10:54.530Z,17.20
2019-05-23T20:13:23.899Z,17.20
2019-05-23T20:15:53.155Z,17.10
2019-05-23T20:18:22.441Z,17.00
2019-05-23T20:20:51.809Z,17.00
2019-05-23T20:23:21.062Z,16.90
2019-05-23T20:25:50.418Z,16.80
2019-05-23T20:28:19.541Z,16.80
2019-05-23T20:30:51.970Z,16.70
2019-05-23T20:33:21.264Z,16.70
2019-05-23T20:35:50.501Z,16.60
2019-05-23T20:38:20.047Z,16.60
2019-05-23T20:40:49.127Z,16.50
2019-05-23T20:43:18.576Z,16.50
2019-05-23T20:45:47.605Z,16.50
2019-05-23T20:48:16.599Z,16.40
2019-05-23T20:50:46.222Z,16.30
2019-05-23T20:53:15.273Z,16.30
2019-05-23T20:55:44.774Z,16.20
2019-05-23T20:58:13.829Z,16.20
2019-05-23T21:01:00.784Z,16.10
2019-05-23T21:03:30.183Z,16.10
2019-05-23T21:05:59.276Z,16.00
2019-05-23T21:08:28.279Z,15.90
2019-05-23T21:10:57.389Z,15.90
2019-05-23T21:13:26.370Z,15.80
2019-05-23T21:15:55.382Z,15.80
2019-05-23T21:18:24.458Z,15.70
2019-05-23T21:20:53.449Z,15.60
2019-05-23T21:23:22.368Z,15.50
2019-05-23T21:25:58.939Z,15.50
2019-05-23T21:28:28.116Z,15.40
2019-05-23T21:30:57.076Z,15.30
2019-05-23T21:33:26.136Z,15.20
2019-05-23T21:35:55.087Z,15.20
2019-05-23T21:38:24.770Z,15.10
2019-05-23T21:40:53.801Z,15.10
2019-05-23T21:43:22.806Z,15.00
2019-05-23T21:45:52.528Z,15.00
2019-05-23T21:48:21.631Z,14.90
2019-05-23T21:50:51.247Z,14.80
2019-05-23T21:53:20.492Z,14.80
2019-05-23T21:55:49.477Z,14.70
2019-05-23T21:58:18.499Z,14.70
2019-05-23T22:01:07.292Z,14.60
2019-05-23T22:03:39.189Z,14.60
2019-05-23T22:06:12.734Z,14.50
2019-05-23T22:08:42.614Z,14.50
2019-05-23T22:11:11.759Z,14.50
2019-05-23T22:13:40.934Z,14.50
2019-05-23T22:16:10.065Z,14.50
2019-05-23T22:18:39.108Z,14.50
2019-05-23T22:21:08.506Z,14.50
2019-05-23T22:23:37.514Z,14.50
2019-05-23T22:26:06.715Z,14.40
2019-05-23T22:28:35.813Z,14.30
2019-05-23T22:31:05.177Z,14.30
2019-05-23T22:33:52.161Z,14.20
2019-05-23T22:36:22.636Z,14.20
2019-05-23T22:38:51.646Z,14.20
2019-05-23T22:41:20.583Z,14.10
2019-05-23T22:43:49.551Z,14.00
2019-05-23T22:46:20.182Z,13.90
2019-05-23T22:48:49.139Z,13.90
2019-05-23T22:51:18.070Z,13.80
2019-05-23T22:53:47.114Z,13.70
2019-05-23T22:56:16.043Z,13.70
2019-05-23T22:58:45.082Z,13.60
2019-05-23T23:01:14.849Z,13.60
2019-05-23T23:03:43.807Z,13.60
2019-05-23T23:06:13.109Z,13.60
2019-05-23T23:08:42.324Z,13.50
2019-05-23T23:11:11.733Z,13.50
2019-05-23T23:13:41.116Z,13.50
2019-05-23T23:16:10.255Z,13.50
2019-05-23T23:18:39.221Z,13.50
2019-05-23T23:21:08.150Z,13.50
2019-05-23T23:23:37.121Z,13.40
2019-05-23T23:26:06.158Z,13.30
2019-05-23T23:28:35.892Z,13.20
2019-05-23T23:31:04.890Z,13.10
2019-05-23T23:33:33.836Z,13.10
2019-05-23T23:36:02.754Z,13.00
2019-05-23T23:38:31.711Z,13.00
2019-05-23T23:41:00.645Z,12.90
2019-05-23T23:43:29.587Z,12.90
2019-05-23T23:49:09.418Z,12.80
2019-05-23T23:51:56.658Z,12.70
2019-05-23T23:54:43.544Z,12.60
2019-05-23T23:57:30.190Z,12.50
